Time;durP1;ratioP1;P1;durP2;ratioP2;P2;SDS_P1;SDS_P2;PMS_P1;PMS_P2;Temp;Humidity;BMP_temperature;BMP_pressure;BME280_temperature;BME280_humidity;BME280_pressure;Samples;Min_cycle;Max_cycle;Signal;HPM_P1;HPM_P2
2022/11/08 00:03:07;;;;;;;11.40;3.20;;;;;;;11.87;100.00;100972.25;7372974;19;20014;-74
2022/11/08 00:14:01;;;;;;;10.95;3.70;;;;;;;11.83;100.00;100960.81;7373342;19;20071;-74
2022/11/08 00:16:31;;;;;;;8.88;3.30;;;;;;;11.76;100.00;100957.22;7374116;19;20022;-71
2022/11/08 00:19:04;;;;;;;13.48;2.92;;;;;;;11.72;100.00;100944.03;7372949;19;20029;-72
2022/11/08 00:21:34;;;;;;;10.77;3.05;;;;;;;11.78;100.00;100942.38;7374036;19;20021;-74
2022/11/08 00:24:03;;;;;;;8.90;2.97;;;;;;;11.78;100.00;100944.13;7371410;19;20110;-72
2022/11/08 00:26:33;;;;;;;10.10;3.25;;;;;;;11.76;100.00;100948.44;7374186;19;20359;-72
2022/11/08 00:29:03;;;;;;;10.10;3.38;;;;;;;11.72;100.00;100954.53;7372368;19;20029;-72
2022/11/08 00:31:32;;;;;;;11.07;3.10;;;;;;;11.71;100.00;100950.16;7373818;19;20014;-73
2022/11/08 00:34:05;;;;;;;10.02;3.25;;;;;;;11.63;100.00;100941.31;7371569;19;20026;-72
2022/11/08 00:36:35;;;;;;;10.43;2.95;;;;;;;11.61;100.00;100943.03;7373378;19;20082;-72
2022/11/08 00:39:05;;;;;;;12.15;3.20;;;;;;;11.59;100.00;100929.00;7374739;19;20006;-72
2022/11/08 00:41:35;;;;;;;10.27;3.20;;;;;;;11.71;100.00;100944.88;7371502;19;20022;-72
2022/11/08 00:44:05;;;;;;;8.40;2.83;;;;;;;11.72;100.00;100928.25;7368291;19;20093;-72
2022/11/08 00:46:36;;;;;;;11.35;3.50;;;;;;;11.65;100.00;100929.06;7375733;19;20018;-72
2022/11/08 00:49:09;;;;;;;10.30;3.78;;;;;;;11.62;100.00;100937.78;7368736;19;20011;-72
2022/11/08 00:51:39;;;;;;;10.60;3.03;;;;;;;11.59;100.00;100929.00;7372685;19;20018;-72
2022/11/08 00:54:10;;;;;;;7.30;2.80;;;;;;;11.57;100.00;100928.09;7372209;19;20021;-72
2022/11/08 00:56:39;;;;;;;11.50;2.60;;;;;;;11.47;100.00;100922.75;7371024;19;20608;-74
2022/11/08 00:59:09;;;;;;;11.38;3.17;;;;;;;11.54;100.00;100920.19;7375343;19;20022;-75
2022/11/08 01:01:39;;;;;;;9.60;3.47;;;;;;;11.46;100.00;100921.00;7371676;19;20018;-73
2022/11/08 01:04:13;;;;;;;9.38;3.30;;;;;;;11.53;100.00;100913.19;7373570;19;20018;-74
2022/11/08 01:06:43;;;;;;;10.05;3.08;;;;;;;11.48;100.00;100916.63;7370970;19;20509;-73
2022/11/08 01:09:13;;;;;;;10.68;2.80;;;;;;;11.43;100.00;100907.84;7370396;19;20018;-73
2022/11/08 01:11:45;;;;;;;8.20;3.42;;;;;;;11.50;100.00;100915.75;7374411;19;20025;-74
2022/11/08 01:14:16;;;;;;;7.15;3.03;;;;;;;11.57;100.00;100910.59;7373275;19;20018;-74
2022/11/08 01:16:46;;;;;;;10.98;3.13;;;;;;;11.56;100.00;100905.31;7372786;19;20095;-73
2022/11/08 01:19:18;;;;;;;7.32;2.60;;;;;;;11.48;100.00;100902.63;7372694;19;20011;-73
2022/11/08 01:21:48;;;;;;;8.57;3.00;;;;;;;11.46;100.00;100896.47;7372474;19;20019;-73
2022/11/08 01:24:20;;;;;;;13.05;2.88;;;;;;;11.51;100.00;100883.38;7374183;19;20018;-74
2022/11/08 01:26:52;;;;;;;8.95;3.08;;;;;;;11.47;100.00;100885.97;7370382;19;20018;-74
2022/11/08 01:29:21;;;;;;;9.50;3.05;;;;;;;11.44;100.00;100883.31;7369753;19;20029;-74
2022/11/08 01:31:51;;;;;;;11.73;3.30;;;;;;;11.45;100.00;100878.94;7372417;19;20014;-74
2022/11/08 01:34:23;;;;;;;10.48;3.17;;;;;;;11.51;100.00;100876.38;7374601;19;20414;-73
2022/11/08 01:36:53;;;;;;;9.75;3.53;;;;;;;11.44;100.00;100877.19;7372306;19;20022;-73
2022/11/08 01:39:23;;;;;;;14.52;3.28;;;;;;;11.42;100.00;100868.44;7374662;19;20524;-72
2022/11/08 01:41:52;;;;;;;6.85;3.30;;;;;;;11.41;100.00;100864.94;7372334;19;20038;-73
2022/11/08 01:44:22;;;;;;;7.82;3.10;;;;;;;11.35;100.00;100854.38;7371478;19;20506;-73
2022/11/08 01:46:52;;;;;;;13.00;3.35;;;;;;;11.29;100.00;100853.44;7366574;19;20018;-73
2022/11/08 01:49:41;;;;;;;9.27;3.90;;;;;;;11.27;100.00;100850.78;7371311;19;20530;-73
2022/11/08 01:52:18;;;;;;;9.77;3.13;;;;;;;11.20;100.00;100851.59;7373562;19;20466;-72
2022/11/08 01:54:56;;;;;;;10.77;3.00;;;;;;;11.15;100.00;100850.66;7372316;19;20014;-73
2022/11/08 01:57:30;;;;;;;7.38;3.13;;;;;;;11.09;100.00;100855.84;7367249;19;20010;-72
2022/11/08 02:00:04;;;;;;;9.32;3.17;;;;;;;11.06;100.00;100846.19;7370865;19;20025;-72
2022/11/08 02:02:37;;;;;;;9.77;3.78;;;;;;;11.05;100.00;100847.03;7371470;19;20505;-72
2022/11/08 02:05:23;;;;;;;9.23;3.05;;;;;;;11.03;100.00;100847.91;7372763;19;20025;-72
2022/11/08 02:07:57;;;;;;;10.82;2.92;;;;;;;10.95;100.00;100853.06;7369437;19;20048;-73
2022/11/08 02:10:31;;;;;;;;;;;;;;;10.94;100.00;100842.53;7369746;19;20144;-73
2022/11/08 02:13:01;;;;;;;11.68;3.95;;;;;;;10.90;100.00;100841.63;7370361;19;19937;-72
2022/11/08 02:15:35;;;;;;;14.20;3.40;;;;;;;10.86;100.00;100846.81;7371444;19;20019;-72
2022/11/08 02:18:05;;;;;;;11.60;2.90;;;;;;;10.77;100.00;100843.22;7371203;19;20590;-72
2022/11/08 02:20:38;;;;;;;9.65;3.50;;;;;;;10.70;100.00;100830.88;7366379;19;20415;-73
2022/11/08 02:23:18;;;;;;;8.77;3.33;;;;;;;10.69;100.00;100813.38;7371422;19;20054;-73
2022/11/08 02:25:51;;;;;;;8.05;3.28;;;;;;;10.64;100.00;100825.56;7369294;19;20283;-73
2022/11/08 02:28:21;;;;;;;11.27;3.47;;;;;;;10.62;100.00;100826.41;7368487;19;20015;-73
2022/11/08 02:30:51;;;;;;;11.63;3.60;;;;;;;10.56;100.00;100819.31;7370859;19;20018;-73
2022/11/08 02:33:22;;;;;;;12.90;3.63;;;;;;;10.50;100.00;100816.63;7368069;19;20014;-73
2022/11/08 02:35:57;;;;;;;8.15;3.22;;;;;;;10.46;100.00;100817.44;7375140;19;20057;-73
2022/11/08 02:38:28;;;;;;;12.88;4.35;;;;;;;10.49;100.00;100812.25;7382310;19;20015;-73
2022/11/08 02:41:00;;;;;;;8.70;3.80;;;;;;;10.52;100.00;100814.03;7377171;19;20028;-73
2022/11/08 02:43:30;;;;;;;12.73;3.60;;;;;;;10.49;100.00;100807.88;7377928;19;20468;-73
2022/11/08 02:46:01;;;;;;;11.88;3.38;;;;;;;10.48;100.00;100798.25;7376473;19;20089;-73
2022/11/08 02:48:31;;;;;;;11.85;3.33;;;;;;;10.47;100.00;100795.63;7375733;19;20026;-72
2022/11/08 02:51:00;;;;;;;9.52;3.63;;;;;;;10.51;100.00;100784.31;7377985;19;20094;-72
2022/11/08 02:53:30;;;;;;;7.43;3.40;;;;;;;10.49;100.00;100791.25;7377696;19;20075;-75
2022/11/08 02:56:02;;;;;;;11.57;3.35;;;;;;;10.44;100.00;100785.09;7375663;19;20018;-73
2022/11/08 02:58:32;;;;;;;6.30;3.10;;;;;;;10.40;100.00;100784.16;7377007;19;20014;-72
2022/11/08 03:01:02;;;;;;;8.10;3.63;;;;;;;10.47;100.00;100772.00;7378174;19;20091;-72
2022/11/08 03:03:32;;;;;;;8.05;3.30;;;;;;;10.43;100.00;100760.59;7378476;19;20073;-72
2022/11/08 03:06:02;;;;;;;9.68;3.60;;;;;;;10.46;100.00;100772.88;7377445;19;20003;-73
2022/11/08 03:08:34;;;;;;;7.82;3.30;;;;;;;10.48;100.00;100760.66;7376186;19;20094;-73
2022/11/08 03:11:07;;;;;;;9.43;3.70;;;;;;;10.41;100.00;100750.97;7375495;19;20006;-73
2022/11/08 03:13:37;;;;;;;15.27;4.20;;;;;;;10.39;100.00;100745.72;7377613;19;20010;-73
2022/11/08 03:16:08;;;;;;;10.27;3.33;;;;;;;10.41;100.00;100733.50;7379437;19;20015;-74
2022/11/08 03:18:37;;;;;;;6.78;2.95;;;;;;;10.41;100.00;100730.88;7376533;19;20018;-73
2022/11/08 03:21:07;;;;;;;7.03;3.13;;;;;;;10.43;100.00;100744.00;7378072;19;20450;-73
2022/11/08 03:23:37;;;;;;;7.03;3.20;;;;;;;10.46;100.00;100729.19;7375712;19;20010;-72
2022/11/08 03:26:09;;;;;;;11.70;3.53;;;;;;;10.45;100.00;100716.06;7378099;19;20021;-75
2022/11/08 03:28:39;;;;;;;6.40;2.90;;;;;;;10.41;100.00;100722.13;7372713;19;20238;-72
2022/11/08 03:31:09;;;;;;;9.85;3.38;;;;;;;10.42;100.00;100708.16;7370569;19;20106;-74
2022/11/08 03:33:39;;;;;;;13.30;3.72;;;;;;;10.46;100.00;100697.72;7374938;19;20021;-74
2022/11/08 03:36:09;;;;;;;11.15;3.10;;;;;;;10.46;100.00;100692.47;7377736;19;20022;-74
2022/11/08 03:38:39;;;;;;;8.27;3.15;;;;;;;10.44;100.00;100690.69;7375886;19;20076;-73
2022/11/08 03:41:11;;;;;;;8.25;3.40;;;;;;;10.39;100.00;100692.41;7372547;19;20018;-73
2022/11/08 03:43:40;;;;;;;6.10;2.83;;;;;;;10.29;100.00;100683.56;7372566;19;20014;-74
2022/11/08 03:46:10;;;;;;;7.50;3.13;;;;;;;10.31;100.00;100679.22;7375221;19;20056;-74
2022/11/08 03:48:40;;;;;;;9.85;3.63;;;;;;;10.37;100.00;100683.66;7375451;19;20021;-74
2022/11/08 03:51:09;;;;;;;10.45;3.22;;;;;;;10.33;100.00;100677.50;7371742;19;20098;-74
2022/11/08 03:53:39;;;;;;;9.85;3.40;;;;;;;10.33;100.00;100672.25;7372347;19;20497;-74
2022/11/08 03:56:11;;;;;;;7.85;3.13;;;;;;;10.33;100.00;100667.00;7374281;19;20096;-73
2022/11/08 03:58:41;;;;;;;10.52;3.70;;;;;;;10.33;100.00;100666.13;7370063;19;20010;-74
2022/11/08 04:04:30;;;;;;;9.05;2.95;;;;;;;10.33;100.00;100676.63;7374067;19;20026;-74
2022/11/08 04:07:00;;;;;;;9.15;3.38;;;;;;;10.43;100.00;100670.59;7374927;19;20018;-73
2022/11/08 04:09:30;;;;;;;10.07;4.20;;;;;;;10.37;100.00;100675.78;7371229;19;20018;-74
2022/11/08 04:21:17;;;;;;;9.60;3.90;;;;;;;10.52;100.00;100664.56;7375060;19;20090;-73
2022/11/08 04:22:59;;;;;;;8.13;2.85;;;;;;;10.46;100.00;100647.03;7372451;19;20537;-73
2022/11/08 04:25:28;;;;;;;7.38;2.78;;;;;;;10.49;100.00;100654.91;7373383;19;20021;-73
2022/11/08 04:28:06;;;;;;;7.43;3.42;;;;;;;10.44;100.00;100644.38;7375164;19;20238;-73
2022/11/08 04:30:36;;;;;;;5.50;2.78;;;;;;;10.47;100.00;100643.53;7374200;19;20583;-72
2022/11/08 04:33:07;;;;;;;7.82;3.10;;;;;;;10.54;100.00;100629.63;7372397;19;20396;-73
2022/11/08 04:35:36;;;;;;;9.07;4.45;;;;;;;10.52;100.00;100630.47;7363448;19;20048;-73
2022/11/08 04:38:06;;;;;;;9.63;3.55;;;;;;;10.48;100.00;100621.69;7372229;19;20282;-73
2022/11/08 04:40:36;;;;;;;7.95;2.83;;;;;;;10.45;100.00;100625.16;7377600;19;20074;-73
2022/11/08 04:43:09;;;;;;;8.60;3.38;;;;;;;10.59;100.00;100616.56;7369213;19;20022;-73
2022/11/08 04:45:38;;;;;;;5.57;3.10;;;;;;;10.53;100.00;100625.25;7369496;19;20010;-73
2022/11/08 04:48:08;;;;;;;8.77;3.33;;;;;;;10.53;100.00;100622.63;7375011;19;20014;-73
2022/11/08 04:50:38;;;;;;;8.05;3.25;;;;;;;10.49;100.00;100628.69;7371224;19;20098;-73
2022/11/08 04:53:08;;;;;;;5.50;3.22;;;;;;;10.54;100.00;100618.25;7372313;19;20698;-73
2022/11/08 04:55:38;;;;;;;7.72;3.08;;;;;;;10.46;100.00;100616.44;7366060;19;20070;-73
2022/11/08 04:58:10;;;;;;;7.50;2.92;;;;;;;10.49;100.00;100610.34;7372531;19;20014;-73
2022/11/08 05:00:40;;;;;;;6.63;2.97;;;;;;;10.57;100.00;100608.69;7371485;19;20021;-73
2022/11/08 05:03:09;;;;;;;6.38;3.17;;;;;;;10.49;100.00;100605.09;7372401;19;20022;-73
2022/11/08 05:05:39;;;;;;;7.95;3.42;;;;;;;10.54;100.00;100603.41;7372591;19;20208;-73
2022/11/08 05:08:09;;;;;;;8.35;3.20;;;;;;;10.55;100.00;100599.91;7374958;19;20015;-73
2022/11/08 05:10:39;;;;;;;7.57;3.80;;;;;;;10.55;100.00;100596.41;7373071;19;20225;-73
2022/11/08 05:13:11;;;;;;;8.38;3.28;;;;;;;10.52;100.00;100586.78;7373516;19;20025;-72
2022/11/08 05:15:41;;;;;;;6.95;3.20;;;;;;;10.54;100.00;100582.44;7371451;19;20010;-72
2022/11/08 05:18:10;;;;;;;6.68;2.97;;;;;;;10.54;100.00;100582.44;7374937;19;20257;-73
2022/11/08 05:23:28;;;;;;;7.32;3.38;;;;;;;10.62;100.00;100580.75;7373482;19;20029;-74
2022/11/08 05:25:59;;;;;;;5.35;2.85;;;;;;;10.57;100.00;100577.22;7372986;19;20022;-74
2022/11/08 05:28:32;;;;;;;5.57;3.08;;;;;;;10.56;100.00;100579.81;7374550;19;20023;-72
2022/11/08 05:31:02;;;;;;;8.68;3.17;;;;;;;10.57;100.00;100577.22;7369241;19;20502;-73
2022/11/08 05:33:32;;;;;;;6.13;2.75;;;;;;;10.61;100.00;100571.13;7370674;19;20014;-73
2022/11/08 05:36:03;;;;;;;6.50;2.67;;;;;;;10.53;100.00;100564.94;7373815;19;20022;-73
2022/11/08 05:38:35;;;;;;;6.50;3.30;;;;;;;10.63;100.00;100569.41;7371685;19;20018;-73
2022/11/08 05:41:06;;;;;;;3.45;2.60;;;;;;;10.62;100.00;100557.16;7370661;19;20031;-74
2022/11/08 05:43:39;;;;;;;6.93;3.40;;;;;;;10.63;100.00;100564.16;7369020;19;20018;-72
2022/11/08 05:46:10;;;;;;;6.05;2.88;;;;;;;10.61;100.00;100570.25;7371743;19;20046;-72
2022/11/08 05:48:39;;;;;;;9.80;3.15;;;;;;;10.57;100.00;100566.72;7372106;19;20532;-74
2022/11/08 05:51:10;;;;;;;7.32;3.08;;;;;;;10.51;100.00;100576.28;7373406;19;20019;-74
2022/11/08 05:53:40;;;;;;;8.02;3.20;;;;;;;10.57;100.00;100566.72;7372390;19;20022;-74
2022/11/08 05:56:11;;;;;;;6.75;3.00;;;;;;;10.54;100.00;100564.06;7374429;19;20021;-74
2022/11/08 05:58:43;;;;;;;7.43;2.33;;;;;;;10.62;100.00;100549.28;7372634;19;20022;-74
2022/11/08 06:01:15;;;;;;;5.40;2.70;;;;;;;10.58;100.00;100549.25;7371613;19;20045;-73
2022/11/08 06:03:45;;;;;;;7.07;2.45;;;;;;;10.55;100.00;100550.09;7370964;19;20015;-73
2022/11/08 06:06:16;;;;;;;8.45;2.88;;;;;;;10.58;100.00;100542.25;7369677;19;20025;-73
2022/11/08 06:08:46;;;;;;;6.32;2.72;;;;;;;10.63;100.00;100531.81;7374305;19;20015;-73
2022/11/08 06:11:21;;;;;;;;;;;;;;;10.56;100.00;100543.09;7376995;19;20046;-73
2022/11/08 06:13:54;;;;;;;6.60;2.83;;;;;;;10.58;100.00;100536.13;7377808;19;19929;-73
2022/11/08 06:16:25;;;;;;;6.72;2.75;;;;;;;10.59;100.00;100544.00;7378312;19;20290;-73
2022/11/08 06:18:55;;;;;;;5.47;2.55;;;;;;;10.55;100.00;100531.75;7381125;19;20016;-72
2022/11/08 06:21:26;;;;;;;5.80;2.40;;;;;;;10.53;100.00;100543.97;7376350;19;20025;-72
2022/11/08 06:23:56;;;;;;;6.40;2.67;;;;;;;10.49;100.00;100547.41;7380971;19;20205;-72
2022/11/08 06:26:26;;;;;;;5.40;2.65;;;;;;;10.53;100.00;100543.97;7380092;19;20027;-72
2022/11/08 06:28:58;;;;;;;5.20;2.65;;;;;;;10.60;100.00;100535.28;7379268;19;20014;-72
2022/11/08 06:31:28;;;;;;;7.60;2.70;;;;;;;10.65;100.00;100533.56;7377287;19;20023;-71
2022/11/08 06:33:57;;;;;;;7.00;2.97;;;;;;;10.66;100.00;100524.84;7378454;19;20509;-72
2022/11/08 06:36:27;;;;;;;6.65;3.15;;;;;;;10.72;100.00;100527.50;7379247;19;20026;-72
2022/11/08 06:38:57;;;;;;;6.03;2.72;;;;;;;10.69;100.00;100529.22;7379443;19;20022;-72
2022/11/08 06:41:29;;;;;;;4.72;2.90;;;;;;;10.71;100.00;100538.00;7377833;19;20018;-71
2022/11/08 06:44:02;;;;;;;7.68;2.78;;;;;;;10.69;100.00;100524.88;7375883;19;20317;-72
2022/11/08 06:46:34;;;;;;;5.20;2.50;;;;;;;10.70;100.00;100524.00;7381113;19;20183;-71
2022/11/08 06:49:04;;;;;;;5.75;2.67;;;;;;;10.82;100.00;100531.97;7377601;19;20015;-72
2022/11/08 06:51:34;;;;;;;6.80;2.72;;;;;;;10.93;100.00;100523.28;7377187;19;20226;-72
2022/11/08 06:54:05;;;;;;;6.70;2.65;;;;;;;10.87;100.00;100520.63;7380247;19;20025;-72
2022/11/08 06:56:37;;;;;;;8.68;2.80;;;;;;;10.85;100.00;100520.63;7380810;19;20021;-72
2022/11/08 06:59:10;;;;;;;4.60;2.33;;;;;;;10.84;100.00;100523.22;7378291;19;20018;-72
2022/11/08 07:01:40;;;;;;;5.27;2.57;;;;;;;10.75;100.00;100522.28;7375576;19;20015;-73
2022/11/08 07:04:14;;;;;;;5.70;2.45;;;;;;;10.64;100.00;100526.56;7380282;19;20023;-73
2022/11/08 07:06:44;;;;;;;6.18;2.63;;;;;;;10.68;100.00;100530.97;7377789;19;20014;-72
2022/11/08 07:09:13;;;;;;;6.50;2.80;;;;;;;10.82;100.00;100520.59;7375285;19;20022;-72
2022/11/08 07:11:43;;;;;;;6.05;2.80;;;;;;;10.79;100.00;100525.81;7376185;19;20026;-73
2022/11/08 07:14:15;;;;;;;5.70;2.70;;;;;;;10.79;100.00;100521.44;7378429;19;20019;-72
2022/11/08 07:16:45;;;;;;;4.60;2.45;;;;;;;10.81;100.00;100524.97;7375139;19;20018;-73
2022/11/08 07:19:15;;;;;;;4.40;2.30;;;;;;;10.84;100.00;100510.97;7376215;19;20011;-73
2022/11/08 07:21:44;;;;;;;5.55;2.40;;;;;;;10.82;100.00;100510.09;7376447;19;20015;-72
2022/11/08 07:24:14;;;;;;;9.35;2.83;;;;;;;10.76;100.00;100521.41;7375573;19;20018;-73
2022/11/08 07:26:44;;;;;;;6.25;3.00;;;;;;;10.79;100.00;100517.94;7376451;19;20006;-72
2022/11/08 07:29:16;;;;;;;6.53;2.88;;;;;;;10.76;100.00;100513.56;7374962;19;20025;-72
2022/11/08 07:31:46;;;;;;;4.85;2.42;;;;;;;10.84;100.00;100523.22;7376469;19;20097;-72
2022/11/08 07:34:16;;;;;;;6.63;3.45;;;;;;;10.84;100.00;100517.97;7377601;19;20015;-73
2022/11/08 07:36:46;;;;;;;5.68;3.28;;;;;;;10.78;100.00;100530.19;7375103;19;20024;-71
2022/11/08 07:39:15;;;;;;;6.57;2.67;;;;;;;10.86;100.00;100529.34;7376968;19;20054;-72
2022/11/08 07:41:45;;;;;;;6.65;2.47;;;;;;;10.90;100.00;100524.16;7375112;19;20014;-72
2022/11/08 07:44:17;;;;;;;7.20;2.55;;;;;;;10.95;100.00;100532.94;7374697;19;20014;-72
2022/11/08 07:46:47;;;;;;;7.68;3.67;;;;;;;11.00;100.00;100515.47;7377877;19;20519;-73
2022/11/08 07:49:17;;;;;;;6.82;2.80;;;;;;;11.00;100.00;100519.84;7376077;19;20032;-73
2022/11/08 07:51:47;;;;;;;5.03;2.72;;;;;;;10.95;100.00;100521.56;7375680;19;20082;-73
2022/11/08 07:54:16;;;;;;;9.48;2.90;;;;;;;10.98;100.00;100517.19;7374382;19;20014;-73
2022/11/08 07:56:46;;;;;;;5.20;3.15;;;;;;;11.01;100.00;100532.09;7372919;19;20017;-73
2022/11/08 07:59:19;;;;;;;6.53;2.65;;;;;;;11.11;100.00;100532.16;7373609;19;20015;-73
2022/11/08 08:01:48;;;;;;;9.10;3.35;;;;;;;11.23;100.00;100536.59;7376535;19;20018;-73
2022/11/08 08:04:18;;;;;;;5.65;2.65;;;;;;;11.20;100.00;100519.97;7374438;19;20681;-72
2022/11/08 08:06:48;;;;;;;7.60;2.92;;;;;;;11.27;100.00;100538.38;7373693;19;20028;-72
2022/11/08 08:09:18;;;;;;;8.02;2.90;;;;;;;11.25;100.00;100545.38;7373881;19;20011;-72
2022/11/08 08:11:47;;;;;;;5.75;2.35;;;;;;;11.33;100.00;100534.91;7376094;19;20018;-72
2022/11/08 08:14:20;;;;;;;4.80;3.17;;;;;;;11.39;100.00;100534.94;7375101;19;20018;-72
2022/11/08 08:16:50;;;;;;;4.40;2.78;;;;;;;11.36;100.00;100525.31;7376364;19;20018;-72
2022/11/08 08:19:20;;;;;;;5.65;2.53;;;;;;;11.46;100.00;100532.31;7375375;19;20025;-72
2022/11/08 08:21:50;;;;;;;8.27;2.80;;;;;;;11.50;100.00;100550.72;7375906;19;20022;-72
2022/11/08 08:24:19;;;;;;;6.97;2.83;;;;;;;11.62;100.00;100528.00;7373537;19;20018;-72
2022/11/08 08:26:49;;;;;;;5.70;2.63;;;;;;;11.60;100.00;100529.75;7374950;19;20011;-72
2022/11/08 08:29:21;;;;;;;7.85;2.85;;;;;;;11.68;100.00;100524.53;7374047;19;20014;-72
2022/11/08 08:31:51;;;;;;;6.50;2.80;;;;;;;11.64;100.00;100520.13;7370648;19;20563;-72
2022/11/08 08:34:20;;;;;;;7.43;2.60;;;;;;;11.65;100.00;100511.38;7372921;19;20354;-72
2022/11/08 08:36:50;;;;;;;5.70;2.88;;;;;;;11.68;100.00;100517.53;7371571;19;20094;-72
2022/11/08 08:39:20;;;;;;;7.82;3.08;;;;;;;11.69;100.00;100523.66;7372570;19;20025;-72
2022/11/08 08:41:49;;;;;;;8.93;3.33;;;;;;;11.67;100.00;100514.91;7371103;19;20014;-72
2022/11/08 08:44:22;;;;;;;6.00;2.75;;;;;;;11.65;100.00;100508.75;7371375;19;20018;-72
2022/11/08 08:46:51;;;;;;;6.13;2.83;;;;;;;11.65;100.00;100509.63;7371989;19;20159;-72
2022/11/08 08:49:21;;;;;;;4.07;2.35;;;;;;;11.68;100.00;100517.53;7375582;19;20018;-72
2022/11/08 08:51:50;;;;;;;4.40;2.67;;;;;;;11.70;100.00;100520.16;7374125;19;20475;-72
2022/11/08 08:54:20;;;;;;;6.50;2.78;;;;;;;11.74;100.00;100506.16;7373540;19;20021;-73
2022/11/08 08:56:56;;;;;;;6.68;2.95;;;;;;;11.76;100.00;100512.31;7373325;19;20020;-73
2022/11/08 08:59:29;;;;;;;4.03;2.45;;;;;;;11.75;100.00;100513.19;7376355;19;20094;-73
2022/11/08 09:02:19;;;;;;;5.93;2.90;;;;;;;11.73;100.00;100518.44;7372602;19;20560;-72
2022/11/08 09:04:48;;;;;;;7.40;2.75;;;;;;;11.77;100.00;100524.59;7372483;19;20128;-72
2022/11/08 09:07:18;;;;;;;5.40;2.70;;;;;;;11.80;100.00;100535.13;7371995;19;20021;-72
2022/11/08 09:09:48;;;;;;;6.25;2.83;;;;;;;11.82;100.00;100536.00;7372569;19;20018;-72
2022/11/08 09:12:17;;;;;;;7.15;3.20;;;;;;;11.87;100.00;100534.28;7372114;19;20029;-72
2022/11/08 09:14:50;;;;;;;6.97;2.67;;;;;;;11.91;100.00;100528.16;7376191;19;20029;-72
2022/11/08 09:17:19;;;;;;;7.43;3.38;;;;;;;11.95;100.00;100532.53;7373218;19;20026;-72
2022/11/08 09:19:49;;;;;;;6.57;3.08;;;;;;;11.97;100.00;100536.06;7373154;19;20022;-73
2022/11/08 09:22:25;;;;;;;7.15;2.97;;;;;;;11.97;100.00;100536.06;7369899;19;20018;-73
2022/11/08 09:24:55;;;;;;;5.45;3.00;;;;;;;12.01;100.00;100532.56;7371593;19;20018;-72
2022/11/08 09:27:24;;;;;;;8.40;2.75;;;;;;;12.05;100.00;100533.44;7370577;19;20179;-72
2022/11/08 09:29:57;;;;;;;6.75;3.05;;;;;;;12.04;100.00;100521.16;7371251;19;20285;-72
2022/11/08 09:32:27;;;;;;;6.10;3.40;;;;;;;12.13;100.00;100510.69;7370775;19;20454;-72
2022/11/08 09:35:17;;;;;;;5.97;3.15;;;;;;;12.17;100.00;100506.31;7372635;19;20014;-72
2022/11/08 09:37:46;;;;;;;7.72;2.60;;;;;;;12.17;100.00;100514.19;7373698;19;20013;-72
2022/11/08 09:40:20;;;;;;;6.57;3.28;;;;;;;12.22;100.00;100515.06;7376228;19;20018;-72
2022/11/08 09:42:58;;;;;;;7.93;3.10;;;;;;;12.28;100.00;100512.44;7370984;19;20021;-73
2022/11/08 09:45:34;;;;;;;6.13;2.63;;;;;;;12.36;100.00;100510.72;7369785;19;20021;-72
2022/11/08 09:48:08;;;;;;;7.18;3.00;;;;;;;12.33;100.00;100501.06;7370411;19;20240;-72
2022/11/08 09:50:41;;;;;;;8.80;2.92;;;;;;;12.40;100.00;100508.09;7368401;19;20017;-72
2022/11/08 09:53:19;;;;;;;6.05;2.60;;;;;;;12.41;100.00;100517.72;7370288;19;20019;-73
2022/11/08 09:55:52;;;;;;;5.60;2.60;;;;;;;12.46;100.00;100508.97;7369972;19;20290;-73
2022/11/08 09:58:33;;;;;;;6.03;2.60;;;;;;;12.45;100.00;100515.97;7370076;19;20015;-73
2022/11/08 10:01:07;;;;;;;6.32;2.97;;;;;;;12.48;100.00;100518.56;7368292;19;20229;-73
2022/11/08 10:03:37;;;;;;;5.15;2.63;;;;;;;12.57;100.00;100513.31;7368283;19;20025;-73
2022/11/08 10:06:36;;;;;;;8.77;2.97;;;;;;;12.59;100.00;100513.31;7370878;19;20018;-73
2022/11/08 10:09:17;;;;;;;7.90;2.70;;;;;;;12.64;100.00;100507.19;7370113;19;20069;-74
2022/11/08 10:12:00;;;;;;;5.18;2.75;;;;;;;12.65;100.00;100495.78;7369796;19;20018;-72
2022/11/08 10:14:40;;;;;;;6.45;2.65;;;;;;;12.72;100.00;100502.78;7371380;19;20010;-73
2022/11/08 10:17:46;;;;;;;7.65;3.03;;;;;;;12.75;100.00;100518.56;7371315;19;20025;-73
2022/11/08 10:20:25;;;;;;;7.28;2.92;;;;;;;12.81;100.00;100511.56;7370335;19;20021;-71
2022/11/08 10:23:03;;;;;;;5.35;2.60;;;;;;;12.85;100.00;100506.28;7368279;19;20014;-73
2022/11/08 10:25:41;;;;;;;5.75;2.90;;;;;;;12.91;100.00;100523.81;7367902;19;20036;-72
2022/11/08 10:28:16;;;;;;;6.05;2.80;;;;;;;12.96;100.00;100522.06;7371686;19;20024;-72
2022/11/08 10:30:50;;;;;;;8.70;3.50;;;;;;;12.97;100.00;100511.53;7368752;19;20026;-72
2022/11/08 10:33:26;;;;;;;8.30;3.00;;;;;;;12.95;100.00;100518.56;7366997;19;20018;-73
2022/11/08 10:35:59;;;;;;;5.38;2.70;;;;;;;13.00;100.00;100516.78;7369152;19;20082;-72
2022/11/08 10:38:41;;;;;;;5.90;2.80;;;;;;;13.02;100.00;100524.69;7372811;19;20019;-75
2022/11/08 10:41:19;;;;;;;8.82;2.80;;;;;;;13.07;100.00;100505.38;7368925;19;20014;-72
2022/11/08 10:43:53;;;;;;;7.90;2.70;;;;;;;13.22;100.00;100511.50;7369936;19;20014;-72
2022/11/08 10:46:37;;;;;;;6.85;2.60;;;;;;;13.29;100.00;100516.75;7374069;19;20014;-73
2022/11/08 10:49:15;;;;;;;7.20;2.70;;;;;;;13.40;100.00;100520.22;7373152;19;20014;-73
2022/11/08 10:51:45;;;;;;;8.27;3.03;;;;;;;13.43;100.00;100519.34;7373020;19;20022;-72
2022/11/08 10:54:43;;;;;;;4.47;2.40;;;;;;;13.48;100.00;100520.22;7368664;19;20018;-73
2022/11/08 10:57:15;;;;;;;7.45;2.60;;;;;;;13.56;100.00;100515.75;7377689;19;20101;-72
2022/11/08 10:59:46;;;;;;;12.13;3.08;;;;;;;13.65;100.00;100512.19;7377797;19;20131;-73
2022/11/08 11:02:23;;;;;;;4.90;2.35;;;;;;;13.72;100.00;100512.16;7379307;19;20021;-72
2022/11/08 11:05:14;;;;;;;8.25;2.53;;;;;;;13.76;100.00;100523.56;7378074;19;20022;-72
2022/11/08 11:07:47;;;;;;;7.05;2.30;;;;;;;13.68;100.00;100514.81;7379829;19;20014;-71
2022/11/08 11:10:26;;;;;;;4.47;2.25;;;;;;;13.62;100.00;100514.84;7379446;19;20022;-73
2022/11/08 11:13:03;;;;;;;6.88;2.70;;;;;;;13.72;100.00;100508.66;7375909;19;20206;-73
2022/11/08 11:15:34;;;;;;;7.25;2.70;;;;;;;13.73;100.00;100507.78;7382267;19;20025;-73
2022/11/08 11:18:05;;;;;;;6.60;2.67;;;;;;;13.85;100.00;100506.84;7378503;19;20024;-74
2022/11/08 11:20:37;;;;;;;5.72;2.78;;;;;;;13.97;100.00;100502.38;7379072;19;20019;-74
2022/11/08 11:23:13;;;;;;;6.15;2.75;;;;;;;13.87;100.00;100511.22;7379123;19;20429;-74
2022/11/08 11:25:53;;;;;;;8.00;3.40;;;;;;;13.93;100.00;100505.91;7379613;19;20022;-73
2022/11/08 11:28:22;;;;;;;6.38;2.20;;;;;;;14.02;100.00;100508.50;7380055;19;20107;-74
2022/11/08 11:31:01;;;;;;;6.43;2.67;;;;;;;14.06;100.00;100507.59;7379476;19;20702;-74
2022/11/08 11:33:32;;;;;;;7.82;2.80;;;;;;;14.10;100.00;100505.81;7378295;19;20019;-73
2022/11/08 11:36:11;;;;;;;4.93;2.45;;;;;;;14.24;100.00;100501.31;7379395;19;20738;-74
2022/11/08 11:38:48;;;;;;;4.85;2.38;;;;;;;14.21;100.00;100496.06;7378503;19;20498;-74
2022/11/08 11:41:23;;;;;;;9.30;2.90;;;;;;;14.23;100.00;100496.94;7376991;19;20654;-74
2022/11/08 11:44:05;;;;;;;5.63;2.75;;;;;;;14.25;100.00;100497.78;7378451;19;20015;-73
2022/11/08 11:46:45;;;;;;;5.13;2.70;;;;;;;14.31;100.00;100488.97;7377831;19;20018;-73
2022/11/08 11:49:20;;;;;;;4.30;2.47;;;;;;;14.38;100.00;100490.66;7377719;19;20002;-73
2022/11/08 11:51:53;;;;;;;8.18;2.92;;;;;;;14.42;100.00;100500.34;7374518;19;20165;-73
2022/11/08 11:54:28;;;;;;;2.75;2.17;;;;;;;14.50;100.00;100506.44;7378116;19;20019;-74
2022/11/08 11:57:03;;;;;;;3.95;2.55;;;;;;;14.54;100.00;100508.16;7377298;19;20022;-71
2022/11/08 12:00:00;;;;;;;5.55;2.90;;;;;;;14.64;100.00;100501.88;7376831;19;20044;-73
2022/11/08 12:02:50;;;;;;;8.00;2.83;;;;;;;14.60;100.00;100494.88;7378009;19;20025;-73
2022/11/08 12:05:30;;;;;;;4.22;2.38;;;;;;;14.54;100.00;100492.31;7377034;19;20019;-73